| time (UTC) | temp F | wind direction | speed MPH | gust MPH | rain 1hr in | rain 24hr in | rain mn in | humidity % | barometer mb |
| 20260901191549 | 82 | 60 | 1.0 | 6.0 | 0.00 | 0.48 | 0.23 | 92 | 1017.1 |
| 20260901190104 | 82 | 30 | 0.0 | 3.0 | 0.00 | 0.48 | 0.23 | 92 | 1017.2 |
| 20260901184553 | 81 | 0 | 2.0 | 9.0 | 0.00 | 0.48 | 0.23 | 92 | 1017.2 |
| 20260901183052 | 81 | 0 | 0.0 | 3.0 | 0.00 | 0.48 | 0.23 | 92 | 1017.4 |
| 20260901181551 | 81 | 127 | 0.0 | 7.0 | 0.00 | 0.48 | 0.23 | 92 | 1017.4 |
| 20260901180055 | 81 | 53 | 2.0 | 11.0 | 0.00 | 0.48 | 0.23 | 92 | 1017.0 |
| 20260901174548 | 81 | 0 | 1.0 | 8.0 | 0.01 | 0.48 | 0.23 | 92 | 1017.1 |
| 20260901173055 | 81 | 43 | 1.0 | 9.0 | 0.01 | 0.48 | 0.23 | 93 | 1017.4 |
| 20260901171603 | 81 | 0 | 0.0 | 7.0 | 0.01 | 0.48 | 0.23 | 93 | 1017.6 |
| 20260901170052 | 82 | 111 | 1.0 | 6.0 | 0.01 | 0.48 | 0.23 | 93 | 1017.4 |
| 20260901164600 | 82 | 0 | 0.0 | 4.0 | 0.00 | 0.47 | 0.22 | 92 | 1017.3 |
| 20260901163053 | 82 | 0 | 0.0 | 5.0 | 0.00 | 0.47 | 0.22 | 94 | 1017.4 |
| 20260901161602 | 81 | 0 | 0.0 | 4.0 | 0.00 | 0.47 | 0.22 | 93 | 1017.4 |
| 20260901160104 | 81 | 116 | 1.0 | 6.0 | 0.00 | 0.47 | 0.22 | 93 | 1017.6 |
| 20260901154557 | 81 | 173 | 0.0 | 8.0 | 0.00 | 0.47 | 0.22 | 93 | 1017.5 |
| 20260901153054 | 81 | 89 | 2.0 | 10.0 | 0.00 | 0.47 | 0.22 | 93 | 1017.5 |
| 20260901151559 | 80 | 0 | 0.0 | 4.0 | 0.00 | 0.47 | 0.22 | 93 | 1017.6 |
| 20260901150046 | 79 | 124 | 0.0 | 6.0 | 0.00 | 0.47 | 0.22 | 93 | 1017.5 |
| 20260901144559 | 79 | 0 | 0.0 | 4.0 | 0.00 | 0.47 | 0.22 | 93 | 1017.4 |
| 20260901143108 | 79 | 0 | 0.0 | 6.0 | 0.00 | 0.47 | 0.22 | 94 | 1017.5 |
| 20260901141559 | 78 | 133 | 0.0 | 4.0 | 0.00 | 0.47 | 0.22 | 94 | 1017.2 |
| 20260901140106 | 78 | 0 | 0.0 | 4.0 | 0.00 | 0.47 | 0.22 | 94 | 1017.1 |
| 20260901134555 | 79 | 113 | 0.0 | 5.0 | 0.00 | 0.47 | 0.22 | 94 | 1016.9 |
| 20260901133058 | 78 | 0 | 0.0 | 4.0 | 0.02 | 0.47 | 0.22 | 94 | 1017.1 |
| 20260901131603 | 77 | 94 | 1.0 | 7.0 | 0.14 | 0.47 | 0.22 | 94 | 1016.9 |
| 20260901130057 | 77 | 63 | 1.0 | 4.0 | 0.16 | 0.47 | 0.22 | 93 | 1016.9 |
| 20260901124554 | 77 | 72 | 1.0 | 4.0 | 0.16 | 0.47 | 0.22 | 93 | 1016.8 |
| 20260901123109 | 77 | 47 | 1.0 | 5.0 | 0.15 | 0.45 | 0.20 | 93 | 1016.6 |
| 20260901121602 | 77 | 134 | 0.0 | 3.0 | 0.03 | 0.33 | 0.08 | 93 | 1016.6 |
| 20260901120057 | 77 | 0 | 0.0 | 7.0 | 0.01 | 0.31 | 0.06 | 93 | 1016.3 |
| 20260901114553 | 77 | 69 | 2.0 | 6.0 | 0.01 | 0.31 | 0.06 | 93 | 1016.1 |
| 20260901113058 | 77 | 67 | 2.0 | 6.0 | 0.01 | 0.30 | 0.05 | 93 | 1015.9 |
| 20260901111550 | 77 | 65 | 1.0 | 9.0 | 0.01 | 0.30 | 0.05 | 92 | 1016.0 |
| 20260901110103 | 77 | 63 | 2.0 | 7.0 | 0.01 | 0.30 | 0.05 | 92 | 1016.1 |
| 20260901104600 | 77 | 62 | 1.0 | 5.0 | 0.05 | 0.30 | 0.05 | 92 | 1016.1 |
| 20260901103048 | 77 | 49 | 1.0 | 3.0 | 0.04 | 0.29 | 0.04 | 91 | 1015.7 |
| 20260901101557 | 78 | 130 | 0.0 | 4.0 | 0.04 | 0.29 | 0.04 | 91 | 1016.1 |
| 20260901100108 | 78 | 101 | 1.0 | 9.0 | 0.04 | 0.29 | 0.04 | 91 | 1016.0 |
| 20260901094600 | 79 | 0 | 0.0 | 7.0 | 0.00 | 0.25 | 0.00 | 91 | 1016.1 |
| 20260901093111 | 79 | 103 | 0.0 | 4.0 | 0.00 | 0.25 | 0.00 | 91 | 1015.9 |
| 20260901091609 | 79 | 0 | 0.0 | 4.0 | 0.00 | 0.25 | 0.00 | 91 | 1015.7 |
| 20260901090056 | 79 | 61 | 0.0 | 3.0 | 0.00 | 0.25 | 0.00 | 91 | 1015.9 |
| 20260901084600 | 79 | 0 | 0.0 | 4.0 | 0.00 | 0.25 | 0.00 | 90 | 1016.1 |
| 20260901083102 | 79 | 0 | 0.0 | 4.0 | 0.00 | 0.25 | 0.00 | 90 | 1015.9 |
| 20260901081559 | 79 | 53 | 0.0 | 3.0 | 0.00 | 0.25 | 0.00 | 90 | 1016.0 |
| 20260901080100 | 79 | 60 | 0.0 | 3.0 | 0.00 | 0.25 | 0.00 | 90 | 1015.9 |
| 20260901074551 | 79 | 78 | 0.0 | 4.0 | 0.00 | 0.25 | 0.00 | 89 | 1015.7 |
| 20260901073052 | 80 | 0 | 1.0 | 4.0 | 0.00 | 0.25 | 0.00 | 90 | 1015.8 |
| 20260901071557 | 80 | 49 | 0.0 | 4.0 | 0.00 | 0.25 | 0.00 | 89 | 1016.3 |
| 20260901070103 | 80 | 126 | 0.0 | 8.0 | 0.00 | 0.25 | 0.00 | 89 | 1016.5 |
| 20260901064553 | 80 | 0 | 0.0 | 4.0 | 0.00 | 0.25 | 0.00 | 89 | 1016.6 |
| 20260901063058 | 80 | 95 | 1.0 | 6.0 | 0.00 | 0.25 | 0.00 | 89 | 1016.6 |
| 20260901061605 | 80 | 95 | 1.0 | 4.0 | 0.00 | 0.25 | 0.00 | 89 | 1016.6 |
| 20260901060055 | 80 | 0 | 0.0 | 6.0 | 0.00 | 0.25 | 0.00 | 88 | 1016.7 |
| 20260901054554 | 80 | 43 | 2.0 | 7.0 | 0.00 | 0.25 | 0.00 | 88 | 1016.7 |
| 20260901053053 | 80 | 69 | 0.0 | 6.0 | 0.00 | 0.25 | 0.00 | 88 | 1016.7 |
| 20260901051558 | 80 | 165 | 1.0 | 5.0 | 0.00 | 0.25 | 0.00 | 87 | 1016.7 |
| 20260901050054 | 80 | 0 | 1.0 | 6.0 | 0.00 | 0.25 | 0.00 | 87 | 1016.9 |
| 20260901044618 | 80 | 50 | 1.0 | 3.0 | 0.00 | 0.25 | 0.25 | 87 | 1016.8 |
| 20260901043059 | 80 | 0 | 1.0 | 6.0 | 0.00 | 0.25 | 0.25 | 87 | 1016.8 |
| 20260901041559 | 80 | 0 | 0.0 | 4.0 | 0.00 | 0.25 | 0.25 | 86 | 1017.0 |
| 20260901040055 | 80 | 0 | 0.0 | 3.0 | 0.00 | 0.25 | 0.25 | 86 | 1016.8 |
| 20260901034559 | 80 | 0 | 1.0 | 3.0 | 0.00 | 0.25 | 0.25 | 86 | 1016.8 |
| 20260901033053 | 80 | 0 | 0.0 | 3.0 | 0.00 | 0.25 | 0.25 | 85 | 1017.0 |
| 20260901031556 | 80 | 0 | 0.0 | 3.0 | 0.00 | 0.25 | 0.25 | 85 | 1016.8 |
| 20260901030058 | 80 | 146 | 0.0 | 2.0 | 0.00 | 0.25 | 0.25 | 85 | 1016.6 |
| 20260901024608 | 81 | 0 | 0.0 | 4.0 | 0.00 | 0.25 | 0.25 | 85 | 1016.3 |
| 20260901023101 | 81 | 0 | 0.0 | 5.0 | 0.00 | 0.25 | 0.25 | 85 | 1016.4 |
| 20260901021557 | 81 | 86 | 1.0 | 6.0 | 0.00 | 0.25 | 0.25 | 84 | 1016.4 |
| 20260901020051 | 81 | 84 | 0.0 | 4.0 | 0.00 | 0.25 | 0.25 | 83 | 1016.3 |
| 20260901014603 | 81 | 78 | 0.0 | 2.0 | 0.00 | 0.25 | 0.25 | 83 | 1016.0 |
| 20260901013057 | 82 | 0 | 0.0 | 2.0 | 0.00 | 0.25 | 0.25 | 83 | 1015.8 |
| 20260901011603 | 82 | 55 | 0.0 | 7.0 | 0.00 | 0.25 | 0.25 | 83 | 1015.8 |
| 20260901010056 | 82 | 64 | 2.0 | 8.0 | 0.00 | 0.25 | 0.25 | 83 | 1015.8 |
| 20260901004605 | 82 | 59 | 0.0 | 4.0 | 0.00 | 0.25 | 0.25 | 82 | 1015.9 |
| 20260901003107 | 83 | 0 | 0.0 | 3.0 | 0.00 | 0.25 | 0.25 | 82 | 1015.9 |
| 20260901001552 | 83 | 145 | 0.0 | 4.0 | 0.00 | 0.25 | 0.25 | 82 | 1015.8 |
| 20260901000055 | 83 | 57 | 1.0 | 9.0 | 0.00 | 0.25 | 0.25 | 81 | 1016.0 |
| 20260831234546 | 84 | 0 | 1.0 | 6.0 | 0.00 | 0.25 | 0.25 | 81 | 1015.9 |
| 20260831233100 | 84 | 46 | 1.0 | 6.0 | 0.00 | 0.25 | 0.25 | 82 | 1015.8 |
| 20260831231559 | 84 | 0 | 1.0 | 10.0 | 0.00 | 0.25 | 0.25 | 82 | 1015.9 |
| 20260831230058 | 84 | 87 | 0.0 | 7.0 | 0.00 | 0.25 | 0.25 | 83 | 1016.1 |
| 20260831224603 | 84 | 116 | 1.0 | 6.0 | 0.00 | 0.25 | 0.25 | 83 | 1016.2 |
| 20260831223047 | 84 | 0 | 0.0 | 3.0 | 0.00 | 0.25 | 0.25 | 83 | 1016.3 |
| 20260831221557 | 85 | 0 | 1.0 | 4.0 | 0.00 | 0.25 | 0.25 | 84 | 1016.4 |
| 20260831220052 | 85 | 5 | 1.0 | 8.0 | 0.00 | 0.25 | 0.25 | 86 | 1016.3 |
| 20260831214622 | 84 | 0 | 0.0 | 4.0 | 0.00 | 0.25 | 0.25 | 87 | 1016.3 |
| 20260831213059 | 83 | 0 | 0.0 | 3.0 | 0.00 | 0.25 | 0.25 | 87 | 1016.2 |
| 20260831211554 | 82 | 0 | 1.0 | 6.0 | 0.00 | 0.25 | 0.25 | 87 | 1016.3 |
| 20260831210049 | 82 | 0 | 0.0 | 3.0 | 0.00 | 0.25 | 0.25 | 87 | 1016.4 |
| 20260831204602 | 81 | 40 | 0.0 | 3.0 | 0.00 | 0.25 | 0.25 | 88 | 1016.9 |
| 20260831203055 | 80 | 40 | 1.0 | 3.0 | 0.00 | 0.25 | 0.25 | 86 | 1017.0 |
| 20260831201549 | 79 | 0 | 0.0 | 3.0 | 0.25 | 0.25 | 0.25 | 85 | 1016.8 |
| 20260831200053 | 80 | 315 | 0.0 | 3.0 | 0.25 | 0.25 | 0.25 | 85 | 1017.3 |
| 20260831194600 | 80 | 316 | 1.0 | 6.0 | 0.25 | 0.25 | 0.25 | 85 | 1017.4 |
| 20260831193046 | 82 | 57 | 2.0 | 12.0 | 0.24 | 0.24 | 0.24 | 82 | 1017.7 |